Time;durP1;ratioP1;P1;durP2;ratioP2;P2;SDS_P1;SDS_P2;PMS_P1;PMS_P2;Temp;Humidity;BMP_temperature;BMP_pressure;BME280_temperature;BME280_humidity;BME280_pressure;Samples;Min_cycle;Max_cycle;Signal;HPM_P1;HPM_P2
2022/07/10 08:58:22;;;;;;;4.80;2.35;;;;;;;16.88;58.71;101382.06;5121895;27;20391;-27
2022/07/10 09:00:48;;;;;;;4.10;2.15;;;;;;;16.94;58.53;101384.53;5118383;27;20040;-26
2022/07/10 09:03:13;;;;;;;3.85;2.65;;;;;;;17.00;58.14;101384.41;5127350;27;20029;-26
2022/07/10 09:05:38;;;;;;;7.72;2.55;;;;;;;17.01;58.18;101388.81;5126627;27;20027;-26
2022/07/10 09:08:04;;;;;;;7.35;3.03;;;;;;;17.01;57.83;101394.16;5125847;28;20448;-26
2022/07/10 09:10:29;;;;;;;3.65;3.00;;;;;;;16.96;57.63;101382.72;5162543;22;20040;-24
2022/07/10 09:13:00;;;;;;;5.07;2.15;;;;;;;16.99;57.68;101371.13;5109061;28;20047;-24
2022/07/10 09:15:26;;;;;;;;;;;;;;;17.01;57.81;101375.50;5099992;28;20402;-25
2022/07/10 09:17:56;;;;;;;3.72;2.42;;;;;;;17.04;57.58;101388.75;5106600;28;20286;-26
2022/07/10 09:20:38;;;;;;;6.50;2.25;;;;;;;17.07;57.62;101381.63;5090085;27;20031;-23
2022/07/10 09:23:15;;;;;;;;;;;;;;;17.09;57.31;101387.78;5127005;27;20394;-23
2022/07/10 09:25:40;;;;;;;4.57;2.45;;;;;;;17.10;57.13;101390.41;5125922;28;20445;-24
2022/07/10 09:28:06;;;;;;;4.82;2.63;;;;;;;17.11;57.27;101375.31;5123600;28;20027;-23
2022/07/10 09:30:35;;;;;;;4.93;2.17;;;;;;;17.15;57.38;101384.97;5125564;28;20100;-24
2022/07/10 09:33:30;;;;;;;5.25;2.72;;;;;;;17.17;57.13;101380.47;5126133;28;20027;-26
2022/07/10 09:36:11;;;;;;;4.63;1.90;;;;;;;17.18;57.20;101382.25;5118806;28;20020;-26
2022/07/10 09:38:42;;;;;;;4.22;2.17;;;;;;;17.20;57.20;101379.53;5122509;28;20102;-26
2022/07/10 09:41:19;;;;;;;5.47;2.33;;;;;;;17.21;57.00;101375.94;5121285;27;20042;-26
2022/07/10 09:43:45;;;;;;;5.43;2.50;;;;;;;17.23;56.92;101369.66;5123449;28;20106;-26
2022/07/10 09:46:11;;;;;;;5.32;2.45;;;;;;;17.25;57.13;101367.84;5128370;28;20027;-26
2022/07/10 09:48:36;;;;;;;4.18;2.67;;;;;;;17.28;57.00;101372.22;5126957;27;20055;-26
2022/07/10 09:51:02;;;;;;;5.45;2.28;;;;;;;17.30;56.82;101373.91;5105333;27;20027;-26
2022/07/10 09:53:27;;;;;;;4.53;2.15;;;;;;;17.31;56.87;101365.00;5133456;27;20620;-26
2022/07/10 09:55:54;;;;;;;5.32;2.67;;;;;;;17.34;57.06;101366.69;5122927;28;20479;-26
2022/07/10 09:58:22;;;;;;;3.00;1.90;;;;;;;17.36;56.83;101370.22;5098490;28;20024;-26
2022/07/10 10:00:50;;;;;;;2.90;2.47;;;;;;;17.40;56.91;101360.31;5091860;27;20370;-26
2022/07/10 10:03:17;;;;;;;2.42;2.03;;;;;;;17.42;56.81;101356.72;5113227;27;20542;-26
2022/07/10 10:05:45;;;;;;;3.97;2.10;;;;;;;17.45;56.27;101363.75;5103120;28;20026;-25
2022/07/10 10:08:48;;;;;;;3.10;1.70;;;;;;;17.49;56.11;101365.44;5114267;28;20054;-26
2022/07/10 10:11:15;;;;;;;2.88;1.85;;;;;;;17.50;55.20;101360.97;5111460;28;20064;-24
2022/07/10 10:13:43;;;;;;;3.72;2.00;;;;;;;17.50;55.12;101359.16;5114084;28;20471;-23
2022/07/10 10:16:08;;;;;;;2.53;1.98;;;;;;;17.53;55.53;101360.88;5112945;28;20088;-23
2022/07/10 10:18:34;;;;;;;2.78;1.92;;;;;;;17.52;55.39;101360.00;5110225;27;20043;-23
2022/07/10 10:20:59;;;;;;;6.97;2.35;;;;;;;17.55;55.57;101351.06;5118651;27;20050;-24
2022/07/10 10:23:25;;;;;;;3.60;2.00;;;;;;;17.57;55.27;101352.75;5111317;28;20163;-23
2022/07/10 10:25:56;;;;;;;5.93;2.22;;;;;;;17.60;55.65;101350.94;5109665;28;20034;-24
2022/07/10 10:28:25;;;;;;;7.30;2.22;;;;;;;17.64;55.36;101349.94;5109712;28;20027;-23
2022/07/10 10:30:58;;;;;;;3.50;2.28;;;;;;;17.69;55.24;101346.22;5091396;28;20055;-24
2022/07/10 10:33:42;;;;;;;4.30;2.00;;;;;;;17.71;55.10;101343.50;5094826;28;20483;-25
2022/07/10 10:36:08;;;;;;;2.58;1.88;;;;;;;17.77;55.11;101343.31;5107784;28;20023;-23
2022/07/10 10:38:49;;;;;;;2.70;2.50;;;;;;;17.82;54.75;101346.75;5110859;28;20077;-24
2022/07/10 10:41:24;;;;;;;;;;;;;;;17.87;55.00;101348.41;5107040;28;20122;-24
2022/07/10 10:44:07;;;;;;;2.88;1.92;;;;;;;17.92;54.90;101346.44;5108839;28;19912;-24
2022/07/10 10:46:33;;;;;;;2.88;1.70;;;;;;;17.94;54.72;101350.81;5092609;28;20096;-24
2022/07/10 10:49:08;;;;;;;4.68;2.10;;;;;;;17.97;54.34;101354.34;5110777;28;20072;-25
2022/07/10 10:52:10;;;;;;;2.50;2.00;;;;;;;17.99;54.23;101353.38;5115239;27;20031;-24
2022/07/10 10:54:53;;;;;;;;;;;;;;;17.99;54.09;101347.13;5030601;28;20386;-24
2022/07/10 10:57:19;;;;;;;4.95;2.08;;;;;;;17.98;53.61;101351.63;5102035;27;20364;-24
2022/07/10 10:59:48;;;;;;;4.22;2.30;;;;;;;18.01;53.76;101350.66;5133921;27;20019;-24
2022/07/10 11:02:27;;;;;;;3.90;2.10;;;;;;;18.06;52.93;101348.72;5119367;27;20027;-24
2022/07/10 11:05:18;;;;;;;2.30;1.85;;;;;;;18.12;53.90;101358.34;5110712;28;20078;-24
2022/07/10 11:07:55;;;;;;;3.22;2.33;;;;;;;18.17;53.17;101356.44;5126544;27;20046;-23
2022/07/10 11:10:26;;;;;;;4.25;2.20;;;;;;;18.21;53.06;101353.63;5105980;28;20070;-24
2022/07/10 11:13:05;;;;;;;4.95;2.42;;;;;;;18.24;52.85;101347.31;5104941;28;20050;-23
2022/07/10 11:15:36;;;;;;;2.67;2.10;;;;;;;18.29;52.65;101341.84;5112452;28;20031;-24
2022/07/10 11:18:05;;;;;;;2.63;1.50;;;;;;;18.38;52.05;101338.00;5093848;28;20026;-23
2022/07/10 11:20:44;;;;;;;4.30;1.75;;;;;;;18.40;51.92;101336.13;5111057;28;20390;-23
2022/07/10 11:23:25;;;;;;;3.22;1.65;;;;;;;18.47;51.62;101332.34;5099786;28;20051;-23
2022/07/10 11:26:01;;;;;;;3.75;1.70;;;;;;;18.57;52.58;101332.94;5109885;28;20050;-23
2022/07/10 11:28:38;;;;;;;7.78;2.30;;;;;;;18.69;51.80;101337.00;5111986;27;20035;-23
2022/07/10 11:31:04;;;;;;;1.92;1.63;;;;;;;18.73;51.25;101327.97;5094488;28;20035;-23
2022/07/10 11:33:39;;;;;;;4.25;2.05;;;;;;;18.77;51.30;101318.94;5107226;28;20027;-24
2022/07/10 11:36:15;;;;;;;3.08;1.83;;;;;;;18.79;50.48;101325.09;5105652;28;20157;-23
2022/07/10 11:38:42;;;;;;;4.07;1.45;;;;;;;18.81;50.53;101325.91;5112326;28;20032;-23
2022/07/10 11:41:13;;;;;;;2.22;1.63;;;;;;;18.81;50.78;101323.25;5109849;28;20047;-24
2022/07/10 11:43:53;;;;;;;3.60;2.22;;;;;;;18.84;50.84;101314.28;5109378;28;20536;-23
2022/07/10 11:46:21;;;;;;;3.55;1.67;;;;;;;18.90;51.03;101323.88;5105496;28;20119;-23
2022/07/10 11:48:47;;;;;;;2.88;1.67;;;;;;;18.92;50.68;101308.66;5092065;27;20027;-23
2022/07/10 11:51:27;;;;;;;2.38;1.65;;;;;;;18.98;50.92;101300.44;5106929;27;20475;-25
2022/07/10 11:54:15;;;;;;;3.20;1.60;;;;;;;19.05;51.45;101307.31;5095478;28;20106;-24
2022/07/10 11:56:42;;;;;;;5.32;2.08;;;;;;;19.06;51.18;101305.50;5106129;27;20561;-24
2022/07/10 11:59:09;;;;;;;4.63;2.00;;;;;;;19.14;51.31;101318.66;5117447;27;20035;-24
2022/07/10 12:01:41;;;;;;;3.30;1.60;;;;;;;19.28;51.30;101300.31;5116598;27;20031;-25
2022/07/10 12:04:08;;;;;;;5.75;2.10;;;;;;;19.40;50.66;101298.13;5119640;27;20458;-23
2022/07/10 12:06:34;;;;;;;4.45;2.20;;;;;;;19.45;50.21;101305.06;5111463;27;20306;-24
2022/07/10 12:09:05;;;;;;;3.38;1.85;;;;;;;19.48;49.65;101304.06;5090767;28;20031;-23
2022/07/10 12:11:31;;;;;;;3.92;2.00;;;;;;;19.44;49.40;101297.94;5072063;28;20028;-23
2022/07/10 12:14:08;;;;;;;4.90;1.58;;;;;;;19.52;49.18;101299.47;5105000;28;20024;-24
2022/07/10 12:16:37;;;;;;;1.42;1.33;;;;;;;19.51;48.83;101300.41;5108134;28;20433;-24
2022/07/10 12:19:06;;;;;;;4.45;2.10;;;;;;;19.55;48.53;101305.59;5103447;28;20028;-23
2022/07/10 12:21:31;;;;;;;4.80;2.00;;;;;;;19.59;48.35;101295.63;5104285;28;20050;-23
2022/07/10 12:23:57;;;;;;;5.22;1.80;;;;;;;19.63;48.68;101301.75;5098559;28;20023;-24
2022/07/10 12:26:32;;;;;;;2.83;1.65;;;;;;;19.54;48.21;101290.44;5091882;28;20111;-23
2022/07/10 12:28:58;;;;;;;2.75;2.08;;;;;;;19.61;48.41;101291.13;5104315;28;20035;-23
2022/07/10 12:31:28;;;;;;;3.90;2.08;;;;;;;19.65;48.25;101297.22;5075168;28;20114;-23
2022/07/10 12:33:57;;;;;;;4.80;1.92;;;;;;;19.68;48.85;101300.66;5101351;27;20020;-23
2022/07/10 12:36:26;;;;;;;2.22;1.75;;;;;;;19.70;48.81;101289.88;5082938;28;20367;-23
2022/07/10 12:38:57;;;;;;;4.30;1.50;;;;;;;19.82;49.70;101286.75;5102290;28;20391;-23
2022/07/10 12:41:24;;;;;;;4.90;1.55;;;;;;;19.86;48.28;101288.38;5103392;28;20558;-23
2022/07/10 12:43:52;;;;;;;3.28;1.67;;;;;;;19.95;48.76;101284.47;5096324;28;20066;-25
2022/07/10 12:46:19;;;;;;;4.68;1.67;;;;;;;20.05;48.24;101287.69;5108844;28;20019;-24
2022/07/10 12:49:08;;;;;;;4.18;1.70;;;;;;;20.07;47.57;101288.47;5115820;28;20066;-23
2022/07/10 12:51:44;;;;;;;3.58;1.80;;;;;;;20.07;46.36;101277.78;5095652;28;20032;-23
2022/07/10 12:54:33;;;;;;;7.85;2.08;;;;;;;20.09;46.23;101280.41;5119680;28;20031;-23
2022/07/10 12:57:00;;;;;;;2.05;1.73;;;;;;;20.15;45.67;101279.28;5106901;28;20028;-23
2022/07/10 12:59:26;;;;;;;4.07;1.80;;;;;;;20.24;46.84;101277.09;5075630;28;20084;-23
2022/07/10 13:01:52;;;;;;;4.38;1.55;;;;;;;20.34;47.16;101272.25;5089835;28;21363;-23
2022/07/10 13:04:23;;;;;;;2.65;2.05;;;;;;;20.46;47.23;101261.94;5093284;28;20028;-23
2022/07/10 13:06:48;;;;;;;3.20;1.35;;;;;;;20.50;46.81;101271.59;5109729;28;20027;-24
2022/07/10 13:09:25;;;;;;;3.15;2.00;;;;;;;20.66;46.66;101270.97;5105501;28;20020;-24
2022/07/10 13:11:54;;;;;;;5.05;2.00;;;;;;;20.68;46.02;101282.50;5108451;28;20035;-23
2022/07/10 13:14:20;;;;;;;6.40;2.13;;;;;;;20.69;45.63;101277.09;5108280;28;20468;-23
2022/07/10 13:16:45;;;;;;;4.85;1.90;;;;;;;20.68;45.52;101279.81;5104837;28;20028;-23
2022/07/10 13:19:11;;;;;;;3.10;1.52;;;;;;;20.64;44.71;101271.91;5106138;28;20364;-24
2022/07/10 13:21:36;;;;;;;6.60;1.98;;;;;;;20.70;44.86;101284.19;5091370;28;20282;-23
2022/07/10 13:24:03;;;;;;;5.95;1.95;;;;;;;20.75;44.78;101275.94;5093361;28;20030;-23
2022/07/10 13:26:29;;;;;;;4.55;1.77;;;;;;;20.82;45.60;101277.44;5107437;28;20036;-23
2022/07/10 13:28:55;;;;;;;3.10;1.63;;;;;;;20.79;45.43;101277.56;5086993;28;20055;-23
2022/07/10 13:31:20;;;;;;;3.03;1.77;;;;;;;20.81;45.47;101266.78;5082142;28;20066;-23
2022/07/10 13:33:45;;;;;;;3.45;1.60;;;;;;;20.92;46.67;101277.06;5119609;27;20023;-24
2022/07/10 13:36:11;;;;;;;3.10;1.70;;;;;;;20.95;44.78;101293.00;5097856;28;20030;-23
2022/07/10 13:38:36;;;;;;;3.22;1.67;;;;;;;20.93;44.29;101292.19;5073696;27;20031;-24
2022/07/10 13:41:02;;;;;;;1.50;1.40;;;;;;;20.94;44.39;101291.28;5112425;28;20027;-23
2022/07/10 13:43:30;;;;;;;2.78;1.58;;;;;;;20.96;44.39;101276.88;5113201;28;20551;-23
2022/07/10 13:45:57;;;;;;;3.00;1.30;;;;;;;21.01;44.55;101284.72;5112624;28;20042;-24
2022/07/10 13:48:22;;;;;;;4.78;1.88;;;;;;;20.98;44.59;101277.66;5113307;28;20076;-23
2022/07/10 13:50:48;;;;;;;4.90;1.95;;;;;;;20.95;44.92;101267.09;5113029;28;20043;-23
2022/07/10 13:53:13;;;;;;;2.58;1.58;;;;;;;21.08;45.26;101274.59;5112664;28;20019;-23
2022/07/10 13:55:39;;;;;;;2.20;1.40;;;;;;;21.13;44.49;101270.75;5094198;27;20031;-23
2022/07/10 13:58:05;;;;;;;2.80;1.77;;;;;;;21.15;43.99;101263.50;5100976;28;20030;-23
2022/07/10 14:00:30;;;;;;;3.13;1.63;;;;;;;21.10;43.31;101268.22;5113301;28;20024;-23
2022/07/10 14:02:57;;;;;;;2.88;2.00;;;;;;;21.18;43.76;101254.47;5095530;28;20063;-24
2022/07/10 14:05:23;;;;;;;3.53;1.60;;;;;;;21.33;45.28;101254.69;5096149;28;20024;-23
2022/07/10 14:07:49;;;;;;;4.65;1.55;;;;;;;21.45;44.23;101247.91;5110298;27;20038;-23
2022/07/10 14:10:14;;;;;;;2.08;1.70;;;;;;;21.52;44.37;101254.75;5101726;27;20038;-23
2022/07/10 14:12:40;;;;;;;2.50;1.15;;;;;;;21.45;43.12;101262.22;5104746;28;20554;-23
2022/07/10 14:15:06;;;;;;;1.98;1.48;;;;;;;21.57;44.15;101263.44;5114692;28;20028;-23
2022/07/10 14:17:31;;;;;;;1.95;1.58;;;;;;;21.56;43.56;101276.91;5112189;27;20102;-23
2022/07/10 14:19:56;;;;;;;5.47;1.48;;;;;;;21.55;43.38;101265.34;5128228;27;20027;-25
2022/07/10 14:22:22;;;;;;;3.97;1.33;;;;;;;21.61;43.43;101275.75;5120649;27;20055;-25
2022/07/10 14:24:48;;;;;;;3.70;1.40;;;;;;;21.67;43.90;101264.75;5100202;28;20069;-25
2022/07/10 14:27:14;;;;;;;3.30;1.60;;;;;;;21.61;43.42;101275.75;5113633;27;20405;-25
2022/07/10 14:29:39;;;;;;;4.43;1.73;;;;;;;21.53;43.38;101268.09;5095766;28;20019;-25
2022/07/10 14:32:05;;;;;;;3.95;1.85;;;;;;;21.66;43.41;101254.09;5114367;28;20451;-26
2022/07/10 14:34:31;;;;;;;2.72;2.00;;;;;;;21.75;42.84;101267.13;5079977;28;20074;-25
2022/07/10 14:36:56;;;;;;;8.32;2.40;;;;;;;21.88;42.80;101255.81;5094284;28;20029;-25
2022/07/10 14:39:21;;;;;;;3.53;1.95;;;;;;;21.92;42.68;101262.75;5077295;28;20027;-25
2022/07/10 14:41:47;;;;;;;3.45;1.80;;;;;;;22.07;42.37;101255.78;5105584;28;20540;-25
2022/07/10 14:44:12;;;;;;;4.00;2.35;;;;;;;22.17;42.18;101254.38;5109140;28;20028;-25
2022/07/10 14:46:37;;;;;;;4.38;1.90;;;;;;;22.23;42.35;101258.59;5109284;28;20026;-25
2022/07/10 14:49:03;;;;;;;4.43;2.15;;;;;;;22.24;41.74;101256.78;5092957;28;20055;-25
2022/07/10 14:51:29;;;;;;;2.38;1.30;;;;;;;22.29;41.97;101260.09;5111406;27;20531;-25
2022/07/10 14:53:55;;;;;;;3.65;1.90;;;;;;;22.33;41.66;101266.19;5112326;28;20122;-25
2022/07/10 14:56:21;;;;;;;3.97;1.50;;;;;;;22.14;40.15;101251.00;5090902;28;20019;-25
2022/07/10 14:58:47;;;;;;;4.40;1.90;;;;;;;22.12;40.49;101253.75;5109130;28;20368;-26
2022/07/10 15:01:12;;;;;;;3.95;1.50;;;;;;;22.19;40.68;101254.31;5107761;28;20539;-25
2022/07/10 15:03:38;;;;;;;3.05;1.15;;;;;;;22.21;40.86;101238.13;5109577;28;20023;-26
2022/07/10 15:06:03;;;;;;;3.83;1.67;;;;;;;22.16;40.76;101252.66;5111018;28;21393;-26
2022/07/10 15:08:29;;;;;;;3.88;1.73;;;;;;;22.27;41.27;101267.34;5109040;28;20038;-24
2022/07/10 15:10:54;;;;;;;4.78;1.92;;;;;;;22.27;40.68;101248.53;5101003;27;20034;-25
2022/07/10 15:13:20;;;;;;;4.18;1.73;;;;;;;22.32;41.14;101237.56;5092414;27;20515;-24
2022/07/10 15:15:47;;;;;;;4.53;2.00;;;;;;;22.32;40.71;101254.56;5106374;28;20833;-25
2022/07/10 15:18:13;;;;;;;6.60;2.35;;;;;;;22.04;41.23;101253.25;5088449;28;20070;-24
2022/07/10 15:20:38;;;;;;;8.10;1.95;;;;;;;22.04;41.52;101248.72;5105375;28;20070;-25
2022/07/10 15:23:04;;;;;;;4.65;1.88;;;;;;;22.10;41.53;101244.88;5087108;28;20501;-25
2022/07/10 15:25:29;;;;;;;5.07;1.77;;;;;;;22.11;42.01;101245.75;5092867;28;20027;-25
2022/07/10 15:27:54;;;;;;;4.80;1.92;;;;;;;22.07;41.59;101244.19;5088970;28;20031;-25
2022/07/10 15:30:20;;;;;;;3.05;1.48;;;;;;;22.02;41.68;101242.59;5090581;28;20027;-25
2022/07/10 15:32:45;;;;;;;3.65;1.48;;;;;;;21.99;41.77;101252.59;5104995;28;20070;-26
2022/07/10 15:35:11;;;;;;;5.93;1.70;;;;;;;22.01;41.75;101250.72;5101360;28;20051;-25
2022/07/10 15:37:36;;;;;;;8.00;1.70;;;;;;;21.98;41.78;101250.84;5092231;27;20035;-25
2022/07/10 15:40:03;;;;;;;4.15;1.60;;;;;;;21.97;41.78;101249.13;5118380;27;20077;-24
2022/07/10 15:42:28;;;;;;;2.00;1.70;;;;;;;21.94;42.10;101250.13;5104196;28;20020;-26
2022/07/10 15:44:53;;;;;;;3.40;1.70;;;;;;;21.94;42.23;101243.91;5112593;28;20022;-26
2022/07/10 15:47:19;;;;;;;3.22;1.40;;;;;;;21.91;42.52;101245.78;5110964;28;20016;-25
2022/07/10 15:49:44;;;;;;;2.03;1.55;;;;;;;21.87;42.66;101241.50;5106016;28;20494;-24
2022/07/10 15:52:10;;;;;;;2.83;1.58;;;;;;;21.82;42.35;101245.34;5112262;28;20035;-25
2022/07/10 15:54:35;;;;;;;3.15;2.00;;;;;;;21.66;42.60;101236.19;5100960;28;20164;-26
2022/07/10 15:57:01;;;;;;;2.88;1.67;;;;;;;21.66;42.24;101241.56;5098545;28;20054;-25
2022/07/10 15:59:27;;;;;;;5.10;1.38;;;;;;;21.65;42.33;101242.47;5120631;27;20212;-25
2022/07/10 16:01:55;;;;;;;2.90;1.90;;;;;;;21.65;42.45;101242.47;5116451;27;20555;-26
2022/07/10 16:04:21;;;;;;;2.28;1.35;;;;;;;21.58;42.48;101241.03;5123781;27;20026;-25
2022/07/10 16:06:47;;;;;;;3.60;1.90;;;;;;;21.55;42.48;101243.88;5110868;28;20024;-25
2022/07/10 16:09:13;;;;;;;4.10;1.60;;;;;;;21.57;42.77;101241.13;5105116;28;20032;-25
2022/07/10 16:11:38;;;;;;;4.68;1.63;;;;;;;21.52;42.90;101246.69;5101495;28;20241;-26
2022/07/10 16:14:04;;;;;;;3.75;1.38;;;;;;;21.49;43.10;101250.38;5089179;28;20467;-25
2022/07/10 16:16:29;;;;;;;2.88;1.30;;;;;;;21.44;42.90;101247.03;5105559;28;20433;-26
2022/07/10 16:18:54;;;;;;;1.88;1.63;;;;;;;21.39;42.56;101241.91;5098717;28;20034;-26
2022/07/10 16:21:20;;;;;;;4.22;1.50;;;;;;;21.33;43.10;101242.16;5108912;27;20107;-26
2022/07/10 16:23:46;;;;;;;2.22;1.67;;;;;;;21.20;43.36;101238.31;5126168;27;20053;-24
2022/07/10 16:26:12;;;;;;;3.53;1.58;;;;;;;21.19;43.41;101247.28;5112775;28;20065;-25
2022/07/10 16:28:38;;;;;;;2.75;1.58;;;;;;;21.16;43.63;101250.97;5107985;28;20024;-25
2022/07/10 16:31:03;;;;;;;3.42;1.40;;;;;;;21.14;43.76;101242.16;5096741;28;20027;-25
2022/07/10 16:33:29;;;;;;;4.72;1.63;;;;;;;21.07;43.89;101246.88;5120884;27;20383;-25
2022/07/10 16:35:55;;;;;;;2.88;1.67;;;;;;;21.01;43.96;101239.13;5122266;27;20443;-25
2022/07/10 16:38:20;;;;;;;2.13;1.60;;;;;;;20.95;44.15;101232.22;5109918;28;20073;-25
2022/07/10 16:40:46;;;;;;;3.20;1.83;;;;;;;20.95;44.51;101234.03;5114752;27;20471;-25
2022/07/10 16:43:12;;;;;;;3.53;1.95;;;;;;;20.89;44.30;101233.38;5123191;27;20020;-25
2022/07/10 16:45:42;;;;;;;1.95;1.27;;;;;;;20.82;44.13;101229.19;5109494;28;20035;-25
2022/07/10 16:48:08;;;;;;;6.75;2.28;;;;;;;20.83;44.34;101238.97;5120932;28;20034;-25
2022/07/10 16:50:34;;;;;;;4.25;1.92;;;;;;;20.83;44.53;101230.91;5108193;28;20402;-26
2022/07/10 16:53:00;;;;;;;3.42;1.98;;;;;;;20.82;44.80;101231.88;5117425;28;20081;-26
2022/07/10 16:55:26;;;;;;;4.05;1.40;;;;;;;20.79;44.92;101242.72;5119145;28;20023;-25
2022/07/10 16:57:51;;;;;;;4.18;1.70;;;;;;;20.75;44.88;101241.09;5111910;28;20024;-25
2022/07/10 17:00:17;;;;;;;3.20;1.45;;;;;;;20.66;45.11;101245.03;5111578;28;20084;-26
2022/07/10 17:02:42;;;;;;;2.15;1.80;;;;;;;20.66;45.43;101233.44;5111279;28;20019;-25
2022/07/10 17:05:11;;;;;;;4.28;1.75;;;;;;;20.63;45.71;101239.81;5114639;28;20027;-26
2022/07/10 17:07:40;;;;;;;2.13;1.30;;;;;;;20.60;45.60;101232.78;5120176;27;20149;-25
2022/07/10 17:10:07;;;;;;;3.50;1.73;;;;;;;20.55;45.63;101241.94;5107490;27;20112;-25
2022/07/10 17:12:32;;;;;;;4.25;1.67;;;;;;;20.51;45.80;101235.88;5110857;27;20039;-26
2022/07/10 17:14:58;;;;;;;2.00;1.70;;;;;;;20.47;46.00;101240.47;5107584;27;20027;-25
2022/07/10 17:17:24;;;;;;;4.45;1.85;;;;;;;20.43;45.90;101243.31;5072732;28;20020;-24
2022/07/10 17:19:51;;;;;;;2.38;1.75;;;;;;;20.36;46.10;101248.97;5092752;28;20034;-25
2022/07/10 17:22:16;;;;;;;2.67;1.63;;;;;;;20.33;46.05;101254.44;5121739;27;20417;-25
2022/07/10 17:24:42;;;;;;;2.05;1.60;;;;;;;20.30;46.19;101253.69;5100359;28;20027;-25
2022/07/10 17:27:07;;;;;;;4.07;1.77;;;;;;;20.25;46.18;101246.69;5092937;28;20110;-24
2022/07/10 17:29:33;;;;;;;2.95;1.90;;;;;;;20.22;46.24;101246.84;5095045;28;20160;-25
2022/07/10 17:31:58;;;;;;;2.20;1.42;;;;;;;20.19;46.34;101248.75;5110998;28;20039;-25
2022/07/10 17:34:23;;;;;;;1.90;1.45;;;;;;;20.12;46.42;101246.34;5074921;28;20134;-25
2022/07/10 17:36:49;;;;;;;2.33;1.30;;;;;;;20.08;46.56;101244.69;5104728;28;20035;-25
2022/07/10 17:39:14;;;;;;;4.57;1.48;;;;;;;20.04;46.56;101253.78;5113041;28;20062;-25
2022/07/10 17:41:40;;;;;;;3.15;1.40;;;;;;;19.97;46.71;101249.59;5103912;28;20032;-23
2022/07/10 17:44:06;;;;;;;3.33;1.60;;;;;;;19.93;46.86;101253.31;5074457;28;20020;-25
2022/07/10 17:46:32;;;;;;;2.65;1.38;;;;;;;19.91;47.10;101260.56;5106485;27;20040;-25
2022/07/10 17:48:57;;;;;;;3.90;1.52;;;;;;;19.88;46.85;101259.72;5125541;27;20076;-25
2022/07/10 17:51:23;;;;;;;2.25;1.40;;;;;;;19.85;46.95;101262.50;5116763;27;20113;-24
2022/07/10 17:53:49;;;;;;;2.97;1.30;;;;;;;19.81;47.26;101263.56;5104935;28;20692;-25
2022/07/10 17:56:15;;;;;;;1.83;1.60;;;;;;;19.78;47.29;101254.81;5095025;28;20031;-24
2022/07/10 17:58:41;;;;;;;3.83;1.50;;;;;;;19.76;47.32;101260.22;5109786;27;20027;-25
2022/07/10 18:01:06;;;;;;;3.15;1.75;;;;;;;19.72;47.36;101262.16;5120219;27;20031;-25
2022/07/10 18:03:31;;;;;;;2.80;1.45;;;;;;;19.68;47.43;101254.28;5110607;27;20034;-23
2022/07/10 18:05:57;;;;;;;5.00;2.35;;;;;;;19.64;47.52;101261.53;5108167;28;20483;-24
2022/07/10 18:08:23;;;;;;;2.63;1.55;;;;;;;19.57;47.66;101260.91;5098478;27;20016;-25
2022/07/10 18:10:49;;;;;;;3.25;1.55;;;;;;;19.55;47.75;101268.13;5108687;27;20036;-26
2022/07/10 18:13:14;;;;;;;3.25;1.85;;;;;;;19.52;47.71;101273.59;5121247;27;20038;-26
2022/07/10 18:15:40;;;;;;;3.10;1.90;;;;;;;19.48;47.87;101271.97;5109707;27;20020;-26
2022/07/10 18:18:05;;;;;;;3.95;1.42;;;;;;;19.43;47.91;101268.56;5112241;28;20487;-25
2022/07/10 18:20:34;;;;;;;1.83;1.50;;;;;;;19.40;48.01;101272.25;5081845;28;20026;-25
2022/07/10 18:23:01;;;;;;;1.83;1.48;;;;;;;19.38;47.89;101275.91;5111819;28;20031;-26
2022/07/10 18:25:26;;;;;;;1.45;1.25;;;;;;;19.33;48.24;101271.59;5120330;27;20061;-25
2022/07/10 18:27:52;;;;;;;1.45;1.33;;;;;;;19.28;48.33;101270.91;5083186;28;20027;-26
2022/07/10 18:30:17;;;;;;;2.75;1.40;;;;;;;19.23;48.15;101265.72;5093052;28;20034;-25
2022/07/10 18:35:27;;;;;;;2.00;1.48;;;;;;;19.16;48.32;101263.31;5116057;27;20414;-25
2022/07/10 18:37:52;;;;;;;2.15;1.38;;;;;;;19.10;48.44;101267.06;5094582;27;20027;-26
2022/07/10 18:40:17;;;;;;;1.83;1.67;;;;;;;19.06;48.52;101265.41;5092813;28;20419;-26
2022/07/10 18:42:43;;;;;;;2.28;1.45;;;;;;;19.00;48.77;101266.50;5099118;28;20118;-25
2022/07/10 18:45:09;;;;;;;3.08;1.30;;;;;;;18.98;48.69;101268.38;5079880;27;20028;-26
2022/07/10 18:47:34;;;;;;;3.80;1.58;;;;;;;18.93;48.77;101278.31;5073469;28;20039;-25
2022/07/10 18:49:59;;;;;;;3.45;1.52;;;;;;;18.90;48.96;101270.44;5121959;27;20127;-24
2022/07/10 18:52:25;;;;;;;1.63;1.52;;;;;;;18.86;49.02;101280.34;5118802;27;20028;-25
2022/07/10 18:54:50;;;;;;;4.40;2.15;;;;;;;18.81;49.42;101272.47;5107338;28;20024;-25
2022/07/10 18:57:16;;;;;;;4.10;1.92;;;;;;;18.77;49.38;101273.50;5109767;28;20453;-25
2022/07/10 18:59:44;;;;;;;2.03;1.35;;;;;;;18.74;49.21;101278.94;5111994;27;20443;-26
2022/07/10 19:02:10;;;;;;;1.90;1.38;;;;;;;18.70;49.54;101279.97;5093485;28;20027;-25
2022/07/10 19:04:36;;;;;;;1.85;1.63;;;;;;;18.67;49.45;101285.44;5109351;28;20023;-25
2022/07/10 19:07:01;;;;;;;2.78;1.60;;;;;;;18.64;49.58;101285.53;5092792;28;20498;-25
2022/07/10 19:09:27;;;;;;;2.13;1.38;;;;;;;18.59;49.62;101285.69;5102081;28;20024;-25
2022/07/10 19:11:53;;;;;;;2.03;1.55;;;;;;;18.57;49.70;101285.75;5097760;28;20032;-25
2022/07/10 19:14:20;;;;;;;3.42;1.60;;;;;;;18.51;49.86;101285.94;5098460;28;20031;-26
2022/07/10 19:16:45;;;;;;;4.50;1.45;;;;;;;18.47;50.07;101286.97;5110715;28;20020;-25
2022/07/10 19:19:11;;;;;;;2.25;1.70;;;;;;;18.42;50.08;101287.13;5088685;28;20023;-25
2022/07/10 19:21:37;;;;;;;2.13;1.42;;;;;;;18.38;50.10;101293.50;5089675;28;20466;-25
2022/07/10 19:24:02;;;;;;;2.80;1.83;;;;;;;18.34;50.20;101297.16;5101920;28;20790;-26
2022/07/10 19:26:28;;;;;;;2.75;1.33;;;;;;;18.28;50.29;101298.22;5097615;28;20384;-26
2022/07/10 19:28:53;;;;;;;2.15;1.33;;;;;;;18.24;50.26;101299.25;5107915;28;20098;-26
2022/07/10 19:31:18;;;;;;;2.78;1.50;;;;;;;18.19;50.58;101306.53;5065937;28;20452;-26
2022/07/10 19:33:47;;;;;;;3.72;1.45;;;;;;;18.14;50.63;101305.81;5109511;28;20023;-26
2022/07/10 19:36:12;;;;;;;2.35;1.55;;;;;;;18.08;50.67;101309.53;5093319;28;20106;-25
2022/07/10 19:38:37;;;;;;;1.77;1.27;;;;;;;18.03;51.04;101306.97;5110760;28;20475;-26
2022/07/10 19:41:07;;;;;;;2.90;1.30;;;;;;;17.99;50.96;101315.13;5096060;28;20031;-25
2022/07/10 19:43:33;;;;;;;3.47;1.55;;;;;;;17.92;51.19;101315.31;5088250;28;20489;-26
2022/07/10 19:46:00;;;;;;;1.23;1.13;;;;;;;17.88;51.22;101324.34;5114774;27;20542;-26
2022/07/10 19:48:26;;;;;;;1.63;1.40;;;;;;;17.83;51.35;101320.91;5116473;27;20027;-25
2022/07/10 19:50:51;;;;;;;2.90;1.30;;;;;;;17.77;51.33;101321.97;5106571;28;20497;-26
2022/07/10 19:53:17;;;;;;;1.67;1.25;;;;;;;17.71;51.32;101322.16;5123331;27;20027;-26
2022/07/10 19:55:42;;;;;;;3.15;1.35;;;;;;;17.67;51.32;101323.13;5113874;27;20028;-26
2022/07/10 19:58:07;;;;;;;4.30;1.15;;;;;;;17.63;51.64;101329.47;5106258;28;20494;-25
2022/07/10 20:00:33;;;;;;;2.20;1.30;;;;;;;17.59;51.61;101320.72;5108022;28;20031;-26
2022/07/10 20:02:59;;;;;;;2.25;1.30;;;;;;;17.53;51.47;101329.75;5105689;28;20064;-25
2022/07/10 20:05:25;;;;;;;1.30;1.20;;;;;;;17.49;51.70;101322.75;5073668;28;20110;-25
2022/07/10 20:07:50;;;;;;;1.40;1.30;;;;;;;17.45;51.65;101329.09;5099577;27;20041;-26
2022/07/10 20:10:16;;;;;;;2.00;1.25;;;;;;;17.42;51.47;101331.84;5090023;28;20031;-26
2022/07/10 20:12:41;;;;;;;2.00;1.15;;;;;;;17.38;51.74;101341.72;5104867;28;20394;-26
2022/07/10 20:15:07;;;;;;;0.85;0.85;;;;;;;17.35;51.85;101340.91;5111546;27;20073;-25
2022/07/10 20:17:32;;;;;;;1.63;1.10;;;;;;;17.31;52.13;101335.66;5125561;27;20035;-25
2022/07/10 20:19:57;;;;;;;2.45;0.98;;;;;;;17.29;51.82;101336.63;5111406;28;20088;-26
2022/07/10 20:22:23;;;;;;;3.33;1.40;;;;;;;17.25;52.21;101346.50;5107252;28;20038;-26
2022/07/10 20:24:48;;;;;;;3.42;1.17;;;;;;;17.23;52.32;101344.78;5111486;28;20031;-26
2022/07/10 20:27:15;;;;;;;1.60;1.02;;;;;;;17.19;52.34;101344.00;5111699;27;20042;-24
2022/07/10 20:29:41;;;;;;;0.90;0.90;;;;;;;17.16;52.59;101336.97;5095314;28;20102;-26